createdAt,value
2023-03-13T07:03:22.998Z,34.5
2023-03-13T07:05:27.492Z,34.43
2023-03-13T07:07:34.219Z,34.13
2023-03-13T07:09:38.604Z,34.15
2023-03-13T07:11:42.953Z,34.04
2023-03-13T07:13:47.315Z,34
2023-03-13T07:15:51.641Z,34.07
2023-03-13T07:17:55.976Z,33.84
2023-03-13T07:20:00.556Z,33.87
2023-03-13T07:22:04.959Z,34.36
2023-03-13T07:24:09.496Z,34.49
2023-03-13T07:26:14.141Z,34.35
2023-03-13T07:28:18.555Z,34.04
2023-03-13T07:30:23.039Z,34.29
2023-03-13T07:32:27.665Z,34.1
2023-03-13T07:34:32.477Z,33.1
2023-03-13T07:36:37.393Z,33.48
2023-03-13T07:38:41.734Z,33.4
2023-03-13T07:40:46.026Z,32.83
2023-03-13T07:42:50.554Z,33.22
2023-03-13T07:44:55.008Z,33.09
2023-03-13T07:47:01.740Z,32.85
2023-03-13T07:49:06.815Z,32.82
2023-03-13T07:51:12.310Z,32.96
2023-03-13T07:53:18.318Z,32.74
2023-03-13T07:55:22.775Z,32.55
2023-03-13T07:57:27.259Z,32.46
2023-03-13T07:59:31.794Z,32.43
2023-03-13T08:01:36.286Z,32.44
2023-03-13T08:03:40.873Z,32.5
2023-03-13T08:05:45.273Z,32.37
2023-03-13T08:07:49.732Z,32.19
2023-03-13T08:09:54.250Z,31.97
2023-03-13T08:11:58.609Z,32.21
2023-03-13T08:14:03.147Z,32.12
2023-03-13T08:16:07.939Z,32.28
2023-03-13T08:18:12.386Z,32.28
2023-03-13T08:20:16.823Z,32.5
2023-03-13T08:22:21.245Z,32.43
2023-03-13T08:24:25.737Z,32.57
2023-03-13T08:26:30.573Z,32.56
2023-03-13T08:28:34.988Z,32.46
2023-03-13T08:30:39.634Z,31.88
2023-03-13T08:32:44.249Z,32.53
2023-03-13T08:34:48.577Z,32.39
2023-03-13T08:36:52.988Z,32.33
2023-03-13T08:38:57.439Z,32.45
2023-03-13T08:41:01.894Z,32.44
2023-03-13T08:43:06.400Z,32.7
2023-03-13T08:45:10.871Z,32.76
2023-03-13T08:47:15.315Z,32.74
2023-03-13T08:49:19.987Z,32.89
2023-03-13T08:51:24.588Z,32.84
2023-03-13T08:53:29.106Z,32.75
2023-03-13T08:55:33.451Z,32.75
2023-03-13T08:57:37.833Z,32.55
2023-03-13T08:59:42.276Z,32.53
2023-03-13T09:01:46.656Z,32.56
2023-03-13T09:03:51.477Z,32.5
2023-03-13T09:05:58.635Z,32.58
2023-03-13T09:08:03.051Z,32.55
2023-03-13T09:10:07.420Z,32.43
2023-03-13T09:12:32.397Z,32.43
2023-03-13T09:14:38.768Z,32.4
2023-03-13T09:16:43.393Z,32.34
2023-03-13T09:18:47.799Z,32.44
2023-03-13T09:20:52.213Z,32.22
2023-03-13T09:22:56.701Z,32.54
2023-03-13T09:25:01.228Z,32.2
2023-03-13T09:27:05.818Z,32
2023-03-13T09:29:10.203Z,32.37
2023-03-13T09:31:15.104Z,31.88
2023-03-13T09:33:19.536Z,32.29
2023-03-13T09:35:23.990Z,32.17
2023-03-13T09:37:28.482Z,32.09
2023-03-13T09:39:32.901Z,31.73
2023-03-13T09:41:37.296Z,31.65
2023-03-13T09:43:41.827Z,32.04
2023-03-13T09:45:46.273Z,31.99
2023-03-13T09:47:50.598Z,32.08
2023-03-13T09:49:55.066Z,32.73
2023-03-13T09:51:59.436Z,32.5
2023-03-13T09:54:03.791Z,32.49
2023-03-13T09:56:08.208Z,32.56
2023-03-13T09:58:12.583Z,32.3
2023-03-13T10:00:17.070Z,32.77
2023-03-13T10:02:21.400Z,32.31
2023-03-13T10:04:26.023Z,32.19
2023-03-13T10:06:30.844Z,32.76
2023-03-13T10:08:35.168Z,32.19
2023-03-13T10:10:39.645Z,32.67
2023-03-13T10:12:44.049Z,32.5
2023-03-13T10:14:48.558Z,32.3
2023-03-13T10:16:53.033Z,32.49
2023-03-13T10:18:57.573Z,32.48
2023-03-13T10:21:01.961Z,33.11
2023-03-13T10:23:06.926Z,33.05
2023-03-13T10:25:11.411Z,32.9
2023-03-13T10:27:15.766Z,32.23
2023-03-13T10:29:20.253Z,32.5
2023-03-13T10:31:25.074Z,32.14
2023-03-13T10:33:29.501Z,31.83
2023-03-13T10:35:34.082Z,32.49
2023-03-13T10:37:38.614Z,32.64
2023-03-13T10:39:42.976Z,32.97
2023-03-13T10:41:47.463Z,32.59
2023-03-13T10:43:51.882Z,32.73
2023-03-13T10:45:56.326Z,32.33
2023-03-13T10:48:00.751Z,32.12
2023-03-13T10:50:05.163Z,32.74
2023-03-13T10:52:09.795Z,33.42
2023-03-13T10:54:14.132Z,33.89
2023-03-13T10:56:18.505Z,34.03
2023-03-13T10:58:22.888Z,33.99
2023-03-13T11:00:27.348Z,34
2023-03-13T11:02:32.239Z,34.21
2023-03-13T11:04:36.771Z,33.67
2023-03-13T11:06:41.100Z,33.21
2023-03-13T11:08:45.904Z,33.39
2023-03-13T11:10:50.305Z,33.83
2023-03-13T11:12:54.868Z,33.89
2023-03-13T11:14:59.552Z,33.58
2023-03-13T11:17:03.882Z,33.4
2023-03-13T11:19:08.474Z,33.35
2023-03-13T11:21:20.609Z,33.84
2023-03-13T11:23:25.317Z,34.14
2023-03-13T11:25:29.898Z,34.11
2023-03-13T11:27:34.860Z,34.07
2023-03-13T11:29:39.889Z,33.46
2023-03-13T11:31:44.701Z,33.25
2023-03-13T11:33:49.578Z,33.08
2023-03-13T11:35:54.367Z,33.5
2023-03-13T11:37:59.106Z,34.27
2023-03-13T11:40:03.737Z,34.34
2023-03-13T11:42:08.957Z,34.62
2023-03-13T11:44:13.735Z,34.78
2023-03-13T11:46:20.001Z,34.78
2023-03-13T11:48:24.642Z,34.86
2023-03-13T11:50:29.370Z,35.06
2023-03-13T11:52:34.034Z,35.05
2023-03-13T11:54:38.710Z,35.09
2023-03-13T11:56:43.249Z,35.14
2023-03-13T11:58:48.062Z,35.25
2023-03-13T12:00:53.065Z,35.2
2023-03-13T12:02:57.871Z,35.13
2023-03-13T12:05:02.688Z,35.17
2023-03-13T12:07:07.589Z,35.01
2023-03-13T12:09:12.272Z,35.11
2023-03-13T12:11:16.937Z,35.21
2023-03-13T12:13:21.506Z,35.22
2023-03-13T12:15:26.604Z,35.37
2023-03-13T12:17:31.506Z,35.43
2023-03-13T12:19:36.722Z,35.4
2023-03-13T12:21:41.558Z,35.68
2023-03-13T12:23:46.540Z,35.44
2023-03-13T12:25:51.633Z,35.13
2023-03-13T12:27:56.374Z,33.49
2023-03-13T12:30:01.015Z,33.93
2023-03-13T12:32:05.686Z,35.1
2023-03-13T12:34:10.209Z,35.44
2023-03-13T12:36:15.041Z,35.29
2023-03-13T12:38:19.874Z,34.99
2023-03-13T12:40:24.529Z,34.75
2023-03-13T12:42:29.170Z,34.07
2023-03-13T12:44:34.435Z,33.87
2023-03-13T12:46:39.528Z,34.4
2023-03-13T12:48:44.289Z,34.55
2023-03-13T12:50:48.996Z,34.37
2023-03-13T12:52:53.632Z,34.21
2023-03-13T12:54:58.224Z,34.28
2023-03-13T12:57:02.998Z,34.61
2023-03-13T12:59:07.695Z,34.76
2023-03-13T13:01:12.822Z,35.83
2023-03-13T13:03:17.582Z,36.14
2023-03-13T13:05:22.293Z,36.45
2023-03-13T13:07:27.104Z,36.04
2023-03-13T13:09:31.937Z,35.82
2023-03-13T13:11:36.770Z,35.41
2023-03-13T13:13:41.571Z,35.55
2023-03-13T13:15:46.445Z,35.81
2023-03-13T13:17:51.267Z,36.11
2023-03-13T13:19:55.952Z,36.37
2023-03-13T13:22:00.848Z,36.39
2023-03-13T13:24:05.501Z,36.75
2023-03-13T13:26:10.278Z,36.84
2023-03-13T13:28:15.069Z,36.74
2023-03-13T13:30:19.860Z,36.65
2023-03-13T13:32:24.776Z,36.47
2023-03-13T13:34:29.816Z,36.38
2023-03-13T13:36:34.401Z,36.34
2023-03-13T13:38:39.526Z,36.19
2023-03-13T13:40:44.240Z,36.12
2023-03-13T13:42:49.055Z,35.91
2023-03-13T13:44:53.616Z,35.86
2023-03-13T13:46:58.445Z,35.8
2023-03-13T13:49:03.190Z,35.86
2023-03-13T13:51:07.796Z,35.8
2023-03-13T13:53:12.605Z,35.58
2023-03-13T13:55:17.335Z,35.59
2023-03-13T13:57:21.944Z,35.85
2023-03-13T13:59:26.594Z,35.71
2023-03-13T14:01:31.583Z,35.91
2023-03-13T14:03:36.186Z,35.76
2023-03-13T14:05:40.865Z,35.57
2023-03-13T14:07:45.538Z,36.14
2023-03-13T14:09:50.109Z,36
2023-03-13T14:11:54.784Z,36.3
2023-03-13T14:13:59.510Z,36.7
2023-03-13T14:16:04.258Z,37.06
2023-03-13T14:18:08.931Z,36.83
2023-03-13T14:20:13.679Z,37.2
2023-03-13T14:22:18.407Z,37.16
2023-03-13T14:24:23.209Z,36.97
2023-03-13T14:26:27.820Z,36.96
2023-03-13T14:28:33.455Z,37.01
2023-03-13T14:30:38.065Z,37.02
2023-03-13T14:32:43.011Z,36.82
2023-03-13T14:34:47.846Z,37.04
2023-03-13T14:36:54.386Z,37.1
2023-03-13T14:39:00.270Z,36.98
2023-03-13T14:41:05.012Z,37.08
2023-03-13T14:43:09.873Z,36.96
2023-03-13T14:45:14.541Z,37.12
2023-03-13T14:47:19.256Z,37.08
2023-03-13T14:49:24.167Z,37.09
2023-03-13T14:51:29.107Z,37.03
2023-03-13T14:53:33.749Z,36.93
2023-03-13T14:55:38.323Z,36.81
2023-03-13T14:57:42.994Z,36.73
2023-03-13T14:59:47.707Z,36.8
2023-03-13T15:01:52.323Z,36.85
2023-03-13T15:03:57.226Z,36.78
2023-03-13T15:06:01.926Z,36.81
2023-03-13T15:08:06.544Z,36.87
2023-03-13T15:10:11.263Z,36.83
2023-03-13T15:12:18.640Z,36.82
2023-03-13T15:14:23.391Z,36.85
2023-03-13T15:16:28.474Z,36.95
2023-03-13T15:18:33.457Z,36.94
2023-03-13T15:20:38.310Z,36.96
2023-03-13T15:22:43.000Z,37.08
2023-03-13T15:25:08.497Z,37.04
2023-03-13T15:27:13.200Z,36.96
2023-03-13T15:29:17.754Z,37.1
2023-03-13T15:31:22.755Z,37.09
2023-03-13T15:33:27.340Z,37.07
2023-03-13T15:35:32.305Z,37.07
2023-03-13T15:37:37.088Z,37.1
2023-03-13T15:39:41.759Z,37.1
2023-03-13T15:41:46.539Z,37.14
2023-03-13T15:43:51.264Z,37.21
2023-03-13T15:45:56.080Z,37.2
2023-03-13T15:48:00.696Z,37.12
2023-03-13T15:50:05.944Z,37.38
2023-03-13T15:52:10.568Z,37.25
2023-03-13T15:54:15.200Z,37.27
2023-03-13T15:56:20.192Z,37.43
2023-03-13T15:58:24.950Z,37.41
2023-03-13T16:00:29.648Z,37.52
2023-03-13T16:02:34.488Z,37.65
2023-03-13T16:04:39.452Z,37.84
2023-03-13T16:06:44.244Z,37.78
2023-03-13T16:08:49.321Z,37.48
2023-03-13T16:10:54.070Z,36.79
2023-03-13T16:12:58.728Z,37.6
2023-03-13T16:15:03.444Z,37.77
2023-03-13T16:17:08.182Z,37.61
2023-03-13T16:19:12.904Z,37.75
2023-03-13T16:21:17.562Z,37.82
2023-03-13T16:23:22.421Z,37.74
2023-03-13T16:25:27.033Z,37.63
2023-03-13T16:27:31.903Z,37.61
2023-03-13T16:29:38.049Z,37.56
2023-03-13T16:31:43.155Z,37.52
2023-03-13T16:33:47.888Z,37.49
2023-03-13T16:35:52.616Z,37.69
2023-03-13T16:37:57.250Z,37.84
2023-03-13T16:40:02.187Z,37.84
2023-03-13T16:42:06.978Z,38.02
2023-03-13T16:44:11.703Z,38.61
2023-03-13T16:46:16.824Z,38.85
2023-03-13T16:48:21.656Z,39.22
2023-03-13T16:50:26.264Z,39.58
2023-03-13T16:52:30.837Z,39.21
2023-03-13T16:54:35.519Z,39.71
2023-03-13T16:56:40.517Z,40.2
2023-03-13T16:58:45.194Z,40.83
2023-03-13T17:01:07.446Z,40.88
2023-03-13T17:03:12.016Z,40.88
2023-03-13T17:05:16.615Z,39.69
2023-03-13T17:07:21.192Z,38.71
2023-03-13T17:09:25.813Z,38.15
2023-03-13T17:11:30.827Z,38
2023-03-13T17:13:35.751Z,37.72
2023-03-13T17:15:40.681Z,37.39
2023-03-13T17:17:48.172Z,36.9
2023-03-13T17:19:53.000Z,36.68
2023-03-13T17:21:57.821Z,36.91
2023-03-13T17:24:02.588Z,36.72
2023-03-13T17:26:07.293Z,36.77
2023-03-13T17:28:12.385Z,36.65
2023-03-13T17:30:17.411Z,37.18
2023-03-13T17:32:22.852Z,36.41
2023-03-13T17:34:28.222Z,36.36
2023-03-13T17:36:39.017Z,36.32
2023-03-13T17:38:44.948Z,36.31
2023-03-13T17:40:50.980Z,36.41
2023-03-13T17:42:59.352Z,36.28
2023-03-13T17:45:04.844Z,36.27
2023-03-13T17:47:11.898Z,36.36
2023-03-13T17:49:18.647Z,36.19
2023-03-13T17:51:23.695Z,36.41
2023-03-13T17:53:30.047Z,36.18
2023-03-13T17:55:36.093Z,37.19
2023-03-13T17:57:41.320Z,36.96
2023-03-13T17:59:46.336Z,36.73
2023-03-13T18:01:52.342Z,36.57
2023-03-13T18:03:57.348Z,36.46
2023-03-13T18:06:01.761Z,36.46
2023-03-13T18:08:06.201Z,36.38
2023-03-13T18:10:10.651Z,36.27
2023-03-13T18:12:18.329Z,36.14
2023-03-13T18:14:22.744Z,36.05
2023-03-13T18:16:28.215Z,36.16
2023-03-13T18:18:32.956Z,36.08
2023-03-13T18:20:37.732Z,35.98
2023-03-13T18:22:42.344Z,36.04
2023-03-13T18:24:48.009Z,35.96
2023-03-13T18:26:52.783Z,35.96
2023-03-13T18:28:58.477Z,35.97
2023-03-13T18:31:03.632Z,36.38
2023-03-13T18:33:09.895Z,36.69
2023-03-13T18:35:15.686Z,36.87
2023-03-13T18:37:20.651Z,36.94
2023-03-13T18:39:25.787Z,36.97
2023-03-13T18:41:30.330Z,37.25
2023-03-13T18:43:35.097Z,37.02
2023-03-13T18:45:40.251Z,36.32
2023-03-13T18:47:45.402Z,35.76
2023-03-13T18:49:50.418Z,35.8
2023-03-13T18:51:55.396Z,35.64
2023-03-13T18:54:04.109Z,35.15
2023-03-13T18:56:08.649Z,34.9
2023-03-13T18:58:13.302Z,35.16
2023-03-13T19:00:18.424Z,34.76
2023-03-13T19:02:23.700Z,34.54
2023-03-13T19:04:31.286Z,34.8
2023-03-13T19:06:37.593Z,34.64
2023-03-13T19:08:43.471Z,34.69
2023-03-13T19:10:48.794Z,34.75
2023-03-13T19:12:53.384Z,34.21
2023-03-13T19:14:59.074Z,34.69
2023-03-13T19:17:03.754Z,34.79
2023-03-13T19:19:08.755Z,34.63
2023-03-13T19:21:14.202Z,34.35
2023-03-13T19:23:21.153Z,34.07
2023-03-13T19:25:26.443Z,34.06
2023-03-13T19:27:32.656Z,34.15
2023-03-13T19:29:40.377Z,34.43
2023-03-13T19:31:46.195Z,34.53
2023-03-13T19:33:50.846Z,34.62
2023-03-13T19:35:55.872Z,34.5
2023-03-13T19:38:00.627Z,34.52
2023-03-13T19:40:09.287Z,34.21
2023-03-13T19:42:14.732Z,34.1
2023-03-13T19:44:19.444Z,33.89
2023-03-13T19:46:26.377Z,33.83
2023-03-13T19:48:31.075Z,33.77
2023-03-13T19:50:35.647Z,34.06
2023-03-13T19:52:40.361Z,34.32
2023-03-13T19:54:47.297Z,34.54
2023-03-13T19:56:52.339Z,34.84
2023-03-13T19:59:00.327Z,34.89
2023-03-13T20:01:19.499Z,34.4
2023-03-13T20:03:25.110Z,35.3
2023-03-13T20:05:32.713Z,34.94
2023-03-13T20:07:37.759Z,35.03
2023-03-13T20:09:42.701Z,34.64
2023-03-13T20:11:47.184Z,34.6
2023-03-13T20:13:52.085Z,34.44
2023-03-13T20:15:58.436Z,34.44
2023-03-13T20:18:02.998Z,34.51
2023-03-13T20:20:08.028Z,34.4
2023-03-13T20:22:34.219Z,34.45
2023-03-13T20:24:39.012Z,34.5
2023-03-13T20:26:43.443Z,34.61
2023-03-13T20:28:47.835Z,34.56
2023-03-13T20:30:52.294Z,34.59
2023-03-13T20:33:02.117Z,34.51
2023-03-13T20:35:06.488Z,34.61
2023-03-13T20:37:10.919Z,34.69
2023-03-13T20:39:15.410Z,34.75
2023-03-13T20:41:19.787Z,34.15
2023-03-13T20:43:24.276Z,34.41
2023-03-13T20:45:28.733Z,34.06
2023-03-13T20:47:33.286Z,33.7
2023-03-13T20:49:37.850Z,33.59
2023-03-13T20:51:42.188Z,33.6
2023-03-13T20:53:46.706Z,33.33
2023-03-13T20:55:51.065Z,33.32
2023-03-13T20:57:55.425Z,32.85
2023-03-13T20:59:59.802Z,32.28
2023-03-13T21:02:04.456Z,32.04
2023-03-13T21:04:08.867Z,32.01
2023-03-13T21:06:13.301Z,31.92
